Time,TemperatureF,DewpointF,PressureIn,WindDirection,WindDirectionDegrees,WindSpeedMPH,WindSpeedGustMPH,Humidity,HourlyPrecipIn,Conditions,Clouds,dailyrainin,SoftwareType,DateUTC
2013-03-21 00:03:00,45.4,22.5,29.75,N/A,-737280,0.0,-999.0,40,0.00,,,0.28,Wunderground v.1.15,2013-03-21 06:03:00,
2013-03-21 00:08:00,45.0,22.7,29.75,N/A,-737280,0.0,-999.0,41,0.00,,,0.28,Wunderground v.1.15,2013-03-21 06:08:00,
2013-03-21 00:13:00,44.8,22.5,29.75,West,270,0.0,-999.0,41,0.00,,,0.28,Wunderground v.1.15,2013-03-21 06:13:00,
2013-03-21 00:18:00,44.4,22.1,29.74,N/A,-737280,0.0,-999.0,41,0.00,,,0.28,Wunderground v.1.15,2013-03-21 06:18:00,
2013-03-21 00:23:00,44.2,22.0,29.74,N/A,-737280,0.0,-999.0,41,0.00,,,0.28,Wunderground v.1.15,2013-03-21 06:23:00,
2013-03-21 00:28:00,44.0,22.4,29.74,West,270,1.0,-999.0,42,0.00,,,0.28,Wunderground v.1.15,2013-03-21 06:28:00,
2013-03-21 00:33:00,43.9,22.3,29.73,N/A,-737280,0.0,-999.0,42,0.00,,,0.28,Wunderground v.1.15,2013-03-21 06:33:00,
2013-03-21 00:38:00,44.0,22.4,29.73,N/A,-737280,0.0,-999.0,42,0.00,,,0.28,Wunderground v.1.15,2013-03-21 06:38:00,
2013-03-21 00:43:00,43.9,22.3,29.73,N/A,-737280,0.0,-999.0,42,0.00,,,0.28,Wunderground v.1.15,2013-03-21 06:43:00,
2013-03-21 00:48:00,44.0,22.4,29.73,West,270,0.0,-999.0,42,0.00,,,0.28,Wunderground v.1.15,2013-03-21 06:48:00,
2013-03-21 00:53:00,44.0,21.8,29.73,N/A,-737280,0.0,-999.0,41,0.00,,,0.28,Wunderground v.1.15,2013-03-21 06:53:00,
2013-03-21 00:58:00,44.0,22.4,29.73,West,270,0.0,-999.0,42,0.00,,,0.28,Wunderground v.1.15,2013-03-21 06:58:00,
2013-03-21 01:03:00,44.2,22.0,29.72,N/A,-737280,0.0,-999.0,41,0.00,,,0.28,Wunderground v.1.15,2013-03-21 07:03:00,
2013-03-21 01:08:00,44.1,22.4,29.72,West,270,0.0,-999.0,42,0.00,,,0.28,Wunderground v.1.15,2013-03-21 07:08:00,
2013-03-21 01:13:00,44.0,22.4,29.71,West,270,1.0,-999.0,42,0.00,,,0.28,Wunderground v.1.15,2013-03-21 07:13:00,
2013-03-21 01:18:00,44.0,22.4,29.71,N/A,-737280,0.0,-999.0,42,0.00,,,0.28,Wunderground v.1.15,2013-03-21 07:18:00,
2013-03-21 01:23:00,43.9,22.3,29.70,West,270,1.0,-999.0,42,0.00,,,0.28,Wunderground v.1.15,2013-03-21 07:23:00,
2013-03-21 01:28:00,43.7,22.1,29.71,West,270,0.0,-999.0,42,0.00,,,0.28,Wunderground v.1.15,2013-03-21 07:28:00,
2013-03-21 01:33:00,44.0,22.4,29.71,WNW,293,0.0,-999.0,42,0.00,,,0.28,Wunderground v.1.15,2013-03-21 07:33:00,
2013-03-21 01:38:00,44.5,21.6,29.71,N/A,-737280,0.0,-999.0,40,0.00,,,0.28,Wunderground v.1.15,2013-03-21 07:38:00,
2013-03-21 01:43:00,45.0,20.9,29.70,N/A,-737280,0.0,-999.0,38,0.00,,,0.28,Wunderground v.1.15,2013-03-21 07:43:00,
2013-03-21 01:48:00,45.4,21.9,29.70,N/A,-737280,0.0,-999.0,39,0.00,,,0.28,Wunderground v.1.15,2013-03-21 07:48:00,
2013-03-21 01:53:00,45.7,21.5,29.70,N/A,-737280,0.0,-999.0,38,0.00,,,0.28,Wunderground v.1.15,2013-03-21 07:53:00,
2013-03-21 01:58:00,45.8,21.6,29.70,N/A,-737280,0.0,-999.0,38,0.00,,,0.28,Wunderground v.1.15,2013-03-21 07:58:00,
2013-03-21 02:03:00,46.0,21.8,29.70,N/A,-737280,0.0,-999.0,38,0.00,,,0.28,Wunderground v.1.15,2013-03-21 08:03:00,
2013-03-21 02:08:00,46.3,22.0,29.70,WNW,293,0.0,-999.0,38,0.00,,,0.28,Wunderground v.1.15,2013-03-21 08:08:00,
2013-03-21 02:13:00,46.4,22.1,29.70,WNW,293,1.0,-999.0,38,0.00,,,0.28,Wunderground v.1.15,2013-03-21 08:13:00,
2013-03-21 02:18:00,46.2,23.2,29.69,N/A,-737280,0.0,-999.0,40,0.00,,,0.28,Wunderground v.1.15,2013-03-21 08:18:00,
2013-03-21 02:23:00,45.8,22.8,29.69,WNW,293,1.0,-999.0,40,0.00,,,0.28,Wunderground v.1.15,2013-03-21 08:23:00,
2013-03-21 02:28:00,45.2,23.4,29.69,WNW,293,1.0,-999.0,42,0.00,,,0.28,Wunderground v.1.15,2013-03-21 08:28:00,
2013-03-21 02:33:00,44.9,23.7,29.69,WNW,293,0.0,-999.0,43,0.00,,,0.28,Wunderground v.1.15,2013-03-21 08:33:00,
2013-03-21 02:38:00,44.6,24.0,29.70,NW,315,1.0,-999.0,44,0.00,,,0.28,Wunderground v.1.15,2013-03-21 08:38:00,
2013-03-21 02:43:00,44.3,24.3,29.71,NW,315,1.0,-999.0,45,0.00,,,0.28,Wunderground v.1.15,2013-03-21 08:43:00,
2013-03-21 02:48:00,44.1,24.1,29.71,WNW,293,3.0,-999.0,45,0.00,,,0.28,Wunderground v.1.15,2013-03-21 08:48:00,
2013-03-21 02:53:00,44.1,24.1,29.72,WNW,293,2.0,-999.0,45,0.00,,,0.28,Wunderground v.1.15,2013-03-21 08:53:00,
2013-03-21 02:58:00,44.7,24.6,29.72,West,270,2.0,-999.0,45,0.00,,,0.28,Wunderground v.1.15,2013-03-21 08:58:00,
2013-03-21 03:03:00,46.1,24.3,29.73,WSW,248,3.0,-999.0,42,0.00,,,0.28,Wunderground v.1.15,2013-03-21 09:03:00,
2013-03-21 03:08:00,48.3,25.7,29.73,WSW,248,6.0,-999.0,41,0.00,,,0.28,Wunderground v.1.15,2013-03-21 09:08:00,
2013-03-21 03:13:00,49.8,27.0,29.73,WSW,248,4.0,-999.0,41,0.00,,,0.28,Wunderground v.1.15,2013-03-21 09:13:00,
2013-03-21 03:18:00,50.1,30.6,29.73,WSW,248,5.0,-999.0,47,0.00,,,0.28,Wunderground v.1.15,2013-03-21 09:18:00,
2013-03-21 03:23:00,49.6,33.2,29.74,SW,225,5.0,-999.0,53,0.00,,,0.28,Wunderground v.1.15,2013-03-21 09:23:00,
2013-03-21 03:28:00,47.3,34.5,29.74,SW,225,13.0,-999.0,61,0.00,,,0.28,Wunderground v.1.15,2013-03-21 09:28:00,
2013-03-21 03:33:00,45.8,35.1,29.73,SSW,203,5.0,-999.0,66,0.01,,,0.28,Wunderground v.1.15,2013-03-21 09:33:00,
2013-03-21 03:38:00,45.0,35.1,29.72,SW,225,9.0,-999.0,68,0.01,,,0.28,Wunderground v.1.15,2013-03-21 09:38:00,
2013-03-21 03:43:00,44.6,35.8,29.71,SSW,203,3.0,-999.0,71,0.01,,,0.28,Wunderground v.1.15,2013-03-21 09:43:00,
2013-03-21 03:48:00,44.5,35.3,29.70,SW,225,6.0,-999.0,70,0.01,,,0.28,Wunderground v.1.15,2013-03-21 09:48:00,
2013-03-21 03:53:00,44.7,34.8,29.70,SW,225,5.0,-999.0,68,0.01,,,0.28,Wunderground v.1.15,2013-03-21 09:53:00,
2013-03-21 03:58:00,45.0,34.7,29.70,South,180,5.0,-999.0,67,0.01,,,0.28,Wunderground v.1.15,2013-03-21 09:58:00,
2013-03-21 04:03:00,45.0,35.1,29.70,SSW,203,4.0,-999.0,68,0.01,,,0.28,Wunderground v.1.15,2013-03-21 10:03:00,
2013-03-21 04:08:00,45.7,35.0,29.70,SW,225,12.0,-999.0,66,0.01,,,0.28,Wunderground v.1.15,2013-03-21 10:08:00,
2013-03-21 04:13:00,46.4,34.9,29.70,SW,225,12.0,-999.0,64,0.01,,,0.28,Wunderground v.1.15,2013-03-21 10:13:00,
2013-03-21 04:18:00,46.6,35.5,29.70,SW,225,10.0,-999.0,65,0.01,,,0.28,Wunderground v.1.15,2013-03-21 10:18:00,
2013-03-21 04:23:00,46.4,35.7,29.71,WSW,248,8.0,-999.0,66,0.01,,,0.28,Wunderground v.1.15,2013-03-21 10:23:00,
2013-03-21 04:28:00,46.0,36.0,29.71,WSW,248,7.0,-999.0,68,0.01,,,0.28,Wunderground v.1.15,2013-03-21 10:28:00,
2013-03-21 04:33:00,45.0,36.5,29.71,SW,225,7.0,-999.0,72,0.02,,,0.28,Wunderground v.1.15,2013-03-21 10:33:00,
2013-03-21 04:38:00,43.9,35.8,29.71,SW,225,11.0,-999.0,73,0.03,,,0.28,Wunderground v.1.15,2013-03-21 10:38:00,
2013-03-21 04:43:00,43.3,35.6,29.71,SW,225,10.0,-999.0,74,0.03,,,0.28,Wunderground v.1.15,2013-03-21 10:43:00,
2013-03-21 04:48:00,43.3,35.9,29.70,SW,225,5.0,-999.0,75,0.03,,,0.28,Wunderground v.1.15,2013-03-21 10:48:00,
2013-03-21 04:53:00,43.3,36.2,29.70,SW,225,6.0,-999.0,76,0.03,,,0.28,Wunderground v.1.15,2013-03-21 10:53:00,
2013-03-21 04:58:00,43.4,36.3,29.70,SW,225,3.0,-999.0,76,0.03,,,0.28,Wunderground v.1.15,2013-03-21 10:58:00,
2013-03-21 05:03:00,43.6,36.5,29.69,SW,225,5.0,-999.0,76,0.03,,,0.28,Wunderground v.1.15,2013-03-21 11:03:00,
2013-03-21 05:08:00,43.7,36.6,29.69,SW,225,2.0,-999.0,76,0.03,,,0.28,Wunderground v.1.15,2013-03-21 11:08:00,
2013-03-21 05:13:00,43.6,36.2,29.69,SW,225,4.0,-999.0,75,0.03,,,0.28,Wunderground v.1.15,2013-03-21 11:13:00,
2013-03-21 05:18:00,43.6,36.5,29.68,SW,225,4.0,-999.0,76,0.03,,,0.28,Wunderground v.1.15,2013-03-21 11:18:00,
2013-03-21 05:23:00,43.5,36.4,29.68,SW,225,2.0,-999.0,76,0.03,,,0.28,Wunderground v.1.15,2013-03-21 11:23:00,
2013-03-21 05:28:00,43.6,36.5,29.68,SW,225,0.0,-999.0,76,0.03,,,0.28,Wunderground v.1.15,2013-03-21 11:28:00,
2013-03-21 05:33:00,43.6,36.5,29.68,SW,225,0.0,-999.0,76,0.01,,,0.28,Wunderground v.1.15,2013-03-21 11:33:00,
2013-03-21 05:38:00,43.5,36.8,29.68,N/A,-737280,0.0,-999.0,77,0.00,,,0.28,Wunderground v.1.15,2013-03-21 11:38:00,
2013-03-21 05:43:00,43.3,36.6,29.68,N/A,-737280,0.0,-999.0,77,0.00,,,0.28,Wunderground v.1.15,2013-03-21 11:43:00,
2013-03-21 05:48:00,43.1,36.7,29.68,N/A,-737280,0.0,-999.0,78,0.00,,,0.28,Wunderground v.1.15,2013-03-21 11:48:00,
2013-03-21 05:53:00,42.7,36.6,29.68,N/A,-737280,0.0,-999.0,79,0.00,,,0.28,Wunderground v.1.15,2013-03-21 11:53:00,
2013-03-21 05:58:00,42.3,36.6,29.68,SW,225,0.0,-999.0,80,0.00,,,0.28,Wunderground v.1.15,2013-03-21 11:58:00,
2013-03-21 06:03:00,41.7,36.0,29.68,N/A,-737280,0.0,-999.0,80,0.00,,,0.28,Wunderground v.1.15,2013-03-21 12:03:00,
2013-03-21 06:08:00,41.1,35.7,29.68,N/A,-737280,0.0,-999.0,81,0.00,,,0.28,Wunderground v.1.15,2013-03-21 12:08:00,
2013-03-21 06:13:00,40.7,35.6,29.68,N/A,-737280,0.0,-999.0,82,0.00,,,0.28,Wunderground v.1.15,2013-03-21 12:13:00,
2013-03-21 06:18:00,40.5,35.7,29.68,N/A,-737280,0.0,-999.0,83,0.00,,,0.28,Wunderground v.1.15,2013-03-21 12:18:00,
2013-03-21 06:23:00,40.2,35.4,29.68,SW,225,0.0,-999.0,83,0.00,,,0.28,Wunderground v.1.15,2013-03-21 12:23:00,
2013-03-21 06:28:00,40.0,35.6,29.68,SW,225,1.0,-999.0,84,0.00,,,0.28,Wunderground v.1.15,2013-03-21 12:28:00,
2013-03-21 06:33:00,40.1,36.0,29.68,N/A,-737280,0.0,-999.0,85,0.00,,,0.28,Wunderground v.1.15,2013-03-21 12:33:00,
2013-03-21 06:38:00,40.4,36.2,29.68,SW,225,0.0,-999.0,85,0.00,,,0.28,Wunderground v.1.15,2013-03-21 12:38:00,
2013-03-21 06:43:00,40.7,36.5,29.67,SW,225,0.0,-999.0,85,0.00,,,0.28,Wunderground v.1.15,2013-03-21 12:43:00,
2013-03-21 06:48:00,40.9,36.7,29.67,N/A,-737280,0.0,-999.0,85,0.00,,,0.28,Wunderground v.1.15,2013-03-21 12:48:00,
2013-03-21 06:53:00,40.8,36.3,29.66,N/A,-737280,0.0,-999.0,84,0.00,,,0.28,Wunderground v.1.15,2013-03-21 12:53:00,
2013-03-21 06:58:00,40.5,36.0,29.67,SW,225,0.0,-999.0,84,0.00,,,0.28,Wunderground v.1.15,2013-03-21 12:58:00,
2013-03-21 07:03:00,40.4,35.9,29.67,SW,225,1.0,-999.0,84,0.00,,,0.28,Wunderground v.1.15,2013-03-21 13:03:00,
2013-03-21 07:08:00,40.2,35.8,29.67,N/A,-737280,0.0,-999.0,84,0.00,,,0.28,Wunderground v.1.15,2013-03-21 13:08:00,
2013-03-21 07:13:00,40.2,35.8,29.67,N/A,-737280,0.0,-999.0,84,0.00,,,0.28,Wunderground v.1.15,2013-03-21 13:13:00,
2013-03-21 07:18:00,40.1,35.7,29.68,N/A,-737280,0.0,-999.0,84,0.00,,,0.28,Wunderground v.1.15,2013-03-21 13:18:00,
2013-03-21 07:23:00,40.2,36.1,29.67,SW,225,1.0,-999.0,85,0.00,,,0.28,Wunderground v.1.15,2013-03-21 13:23:00,
2013-03-21 07:28:00,40.5,36.3,29.67,SW,225,0.0,-999.0,85,0.00,,,0.28,Wunderground v.1.15,2013-03-21 13:28:00,
2013-03-21 07:33:00,40.6,36.4,29.67,SW,225,1.0,-999.0,85,0.00,,,0.28,Wunderground v.1.15,2013-03-21 13:33:00,
2013-03-21 07:38:00,40.8,36.6,29.66,N/A,-737280,0.0,-999.0,85,0.00,,,0.28,Wunderground v.1.15,2013-03-21 13:38:00,
2013-03-21 07:43:00,41.0,36.8,29.66,N/A,-737280,0.0,-999.0,85,0.00,,,0.28,Wunderground v.1.15,2013-03-21 13:43:00,
2013-03-21 07:48:00,41.1,36.9,29.66,N/A,-737280,0.0,-999.0,85,0.01,,,0.28,Wunderground v.1.15,2013-03-21 13:48:00,
2013-03-21 07:53:00,41.4,37.2,29.66,SW,225,1.0,-999.0,85,0.01,,,0.28,Wunderground v.1.15,2013-03-21 13:53:00,
2013-03-21 07:58:00,41.6,37.1,29.65,SW,225,1.0,-999.0,84,0.01,,,0.28,Wunderground v.1.15,2013-03-21 13:58:00,
2013-03-21 08:03:00,41.9,37.4,29.66,N/A,-737280,0.0,-999.0,84,0.01,,,0.28,Wunderground v.1.15,2013-03-21 14:03:00,
2013-03-21 08:08:00,41.9,37.4,29.65,SW,225,0.0,-999.0,84,0.01,,,0.28,Wunderground v.1.15,2013-03-21 14:08:00,
2013-03-21 08:13:00,42.0,37.5,29.65,N/A,-737280,0.0,-999.0,84,0.01,,,0.28,Wunderground v.1.15,2013-03-21 14:13:00,
2013-03-21 08:18:00,42.1,37.3,29.65,SW,225,1.0,-999.0,83,0.01,,,0.28,Wunderground v.1.15,2013-03-21 14:18:00,
2013-03-21 08:23:00,42.3,37.5,29.64,SW,225,2.0,-999.0,83,0.02,,,0.28,Wunderground v.1.15,2013-03-21 14:23:00,
2013-03-21 08:28:00,42.3,37.5,29.64,N/A,-737280,0.0,-999.0,83,0.02,,,0.28,Wunderground v.1.15,2013-03-21 14:28:00,
2013-03-21 08:33:00,42.3,37.5,29.63,SW,225,0.0,-999.0,83,0.02,,,0.28,Wunderground v.1.15,2013-03-21 14:33:00,
2013-03-21 08:38:00,42.6,37.8,29.63,N/A,-737280,0.0,-999.0,83,0.02,,,0.28,Wunderground v.1.15,2013-03-21 14:38:00,
2013-03-21 08:43:00,43.6,39.4,29.63,SW,225,1.0,-999.0,85,0.02,,,0.28,Wunderground v.1.15,2013-03-21 14:43:00,
2013-03-21 08:48:00,44.3,39.2,29.63,SW,225,1.0,-999.0,82,0.01,,,0.28,Wunderground v.1.15,2013-03-21 14:48:00,
2013-03-21 08:53:00,45.0,39.2,29.63,SW,225,2.0,-999.0,80,0.01,,,0.28,Wunderground v.1.15,2013-03-21 14:53:00,
2013-03-21 08:58:00,45.4,39.6,29.63,East,90,2.0,-999.0,80,0.01,,,0.28,Wunderground v.1.15,2013-03-21 14:58:00,
2013-03-21 09:03:00,45.2,39.4,29.63,East,90,2.0,-999.0,80,0.01,,,0.28,Wunderground v.1.15,2013-03-21 15:03:00,
2013-03-21 09:08:00,45.3,40.1,29.62,East,90,2.0,-999.0,82,0.01,,,0.28,Wunderground v.1.15,2013-03-21 15:08:00,
2013-03-21 09:13:00,45.7,40.5,29.62,NE,45,4.0,-999.0,82,0.01,,,0.28,Wunderground v.1.15,2013-03-21 15:13:00,
2013-03-21 09:18:00,45.2,39.7,29.63,East,90,3.0,-999.0,81,0.01,,,0.28,Wunderground v.1.15,2013-03-21 15:18:00,
2013-03-21 09:23:00,44.9,39.4,29.63,East,90,2.0,-999.0,81,0.00,,,0.28,Wunderground v.1.15,2013-03-21 15:23:00,
2013-03-21 09:28:00,44.7,39.5,29.63,East,90,3.0,-999.0,82,0.00,,,0.28,Wunderground v.1.15,2013-03-21 15:28:00,
2013-03-21 09:33:00,45.0,39.8,29.63,East,90,2.0,-999.0,82,0.00,,,0.28,Wunderground v.1.15,2013-03-21 15:33:00,
2013-03-21 09:38:00,44.9,39.7,29.63,N/A,-737280,0.0,-999.0,82,0.00,,,0.28,Wunderground v.1.15,2013-03-21 15:38:00,
2013-03-21 09:43:00,45.0,39.8,29.62,East,90,1.0,-999.0,82,0.00,,,0.28,Wunderground v.1.15,2013-03-21 15:43:00,
2013-03-21 09:48:00,44.9,39.7,29.62,East,90,3.0,-999.0,82,0.00,,,0.28,Wunderground v.1.15,2013-03-21 15:48:00,
2013-03-21 09:53:00,45.0,39.8,29.62,East,90,0.0,-999.0,82,0.00,,,0.28,Wunderground v.1.15,2013-03-21 15:53:00,
2013-03-21 09:58:00,45.4,40.2,29.62,East,90,4.0,-999.0,82,0.00,,,0.28,Wunderground v.1.15,2013-03-21 15:58:00,
2013-03-21 10:03:00,45.3,40.1,29.61,East,90,3.0,-999.0,82,0.00,,,0.28,Wunderground v.1.15,2013-03-21 16:03:00,
2013-03-21 10:08:00,45.4,40.2,29.61,East,90,3.0,-999.0,82,0.00,,,0.28,Wunderground v.1.15,2013-03-21 16:08:00,
2013-03-21 10:13:00,45.7,40.5,29.61,East,90,1.0,-999.0,82,0.00,,,0.28,Wunderground v.1.15,2013-03-21 16:13:00,
2013-03-21 10:18:00,46.3,40.8,29.62,East,90,0.0,-999.0,81,0.00,,,0.28,Wunderground v.1.15,2013-03-21 16:18:00,
2013-03-21 10:23:00,47.1,41.6,29.61,North,0,4.0,-999.0,81,0.00,,,0.28,Wunderground v.1.15,2013-03-21 16:23:00,
2013-03-21 10:28:00,47.8,40.6,29.62,North,0,0.0,-999.0,76,0.00,,,0.28,Wunderground v.1.15,2013-03-21 16:28:00,
2013-03-21 10:33:00,48.4,40.5,29.63,WNW,293,2.0,-999.0,74,0.00,,,0.28,Wunderground v.1.15,2013-03-21 16:33:00,
2013-03-21 10:38:00,48.8,41.9,29.62,NW,315,3.0,-999.0,77,0.00,,,0.28,Wunderground v.1.15,2013-03-21 16:38:00,
2013-03-21 10:43:00,49.1,41.5,29.62,West,270,3.0,-999.0,75,0.00,,,0.28,Wunderground v.1.15,2013-03-21 16:43:00,
2013-03-21 10:48:00,49.2,41.6,29.62,WNW,293,5.0,-999.0,75,0.00,,,0.28,Wunderground v.1.15,2013-03-21 16:48:00,
2013-03-21 10:53:00,49.5,40.8,29.63,WNW,293,5.0,-999.0,72,0.00,,,0.28,Wunderground v.1.15,2013-03-21 16:53:00,
2013-03-21 10:58:00,49.9,41.6,29.63,NW,315,7.0,-999.0,73,0.00,,,0.28,Wunderground v.1.15,2013-03-21 16:58:00,
2013-03-21 11:03:00,50.4,41.7,29.63,NW,315,4.0,-999.0,72,0.00,,,0.28,Wunderground v.1.15,2013-03-21 17:03:00,
2013-03-21 11:08:00,50.7,41.3,29.64,NW,315,9.0,-999.0,70,0.00,,,0.28,Wunderground v.1.15,2013-03-21 17:08:00,
2013-03-21 11:13:00,50.1,41.1,29.64,NW,315,9.0,-999.0,71,0.00,,,0.28,Wunderground v.1.15,2013-03-21 17:13:00,
2013-03-21 11:18:00,49.1,40.5,29.64,NW,315,9.0,-999.0,72,0.00,,,0.28,Wunderground v.1.15,2013-03-21 17:18:00,
2013-03-21 11:23:00,48.9,40.6,29.64,NW,315,6.0,-999.0,73,0.00,,,0.28,Wunderground v.1.15,2013-03-21 17:23:00,
2013-03-21 11:28:00,49.0,40.4,29.64,NW,315,6.0,-999.0,72,0.00,,,0.28,Wunderground v.1.15,2013-03-21 17:28:00,
2013-03-21 11:33:00,48.3,39.7,29.65,WNW,293,8.0,-999.0,72,0.00,,,0.28,Wunderground v.1.15,2013-03-21 17:33:00,
2013-03-21 11:38:00,47.2,37.5,29.65,NNW,338,7.0,-999.0,69,0.00,,,0.28,Wunderground v.1.15,2013-03-21 17:38:00,
2013-03-21 11:43:00,45.7,36.1,29.65,WNW,293,8.0,-999.0,69,0.00,,,0.28,Wunderground v.1.15,2013-03-21 17:43:00,
2013-03-21 11:48:00,43.8,35.4,29.69,WNW,293,13.0,-999.0,72,0.01,,,0.28,Wunderground v.1.15,2013-03-21 17:48:00,
2013-03-21 11:53:00,41.6,34.6,29.71,West,270,7.0,-999.0,76,0.03,,,0.28,Wunderground v.1.15,2013-03-21 17:53:00,
2013-03-21 11:58:00,40.2,33.9,29.71,West,270,8.0,-999.0,78,0.04,,,0.28,Wunderground v.1.15,2013-03-21 17:58:00,
2013-03-21 12:03:00,38.8,32.8,29.71,NW,315,6.0,-999.0,79,0.06,,,0.28,Wunderground v.1.15,2013-03-21 18:03:00,
2013-03-21 12:08:00,37.7,32.4,29.71,NW,315,2.0,-999.0,81,0.08,,,0.28,Wunderground v.1.15,2013-03-21 18:08:00,
2013-03-21 12:13:00,36.8,32.1,29.71,SW,225,7.0,-999.0,83,0.09,,,0.28,Wunderground v.1.15,2013-03-21 18:13:00,
2013-03-21 12:18:00,36.9,32.2,29.71,SW,225,9.0,-999.0,83,0.10,,,0.28,Wunderground v.1.15,2013-03-21 18:18:00,
2013-03-21 12:23:00,37.6,33.2,29.70,SW,225,2.0,-999.0,84,0.11,,,0.28,Wunderground v.1.15,2013-03-21 18:23:00,
2013-03-21 12:28:00,38.6,33.9,29.70,West,270,2.0,-999.0,83,0.12,,,0.28,Wunderground v.1.15,2013-03-21 18:28:00,
2013-03-21 12:33:00,40.0,34.6,29.70,West,270,2.0,-999.0,81,0.14,,,0.28,Wunderground v.1.15,2013-03-21 18:33:00,
2013-03-21 12:38:00,41.2,34.9,29.70,West,270,3.0,-999.0,78,0.15,,,0.28,Wunderground v.1.15,2013-03-21 18:38:00,
2013-03-21 12:43:00,42.2,36.2,29.70,West,270,2.0,-999.0,79,0.16,,,0.28,Wunderground v.1.15,2013-03-21 18:43:00,
2013-03-21 12:48:00,42.9,35.9,29.70,West,270,3.0,-999.0,76,0.16,,,0.28,Wunderground v.1.15,2013-03-21 18:48:00,
2013-03-21 12:53:00,43.2,35.1,29.70,SW,225,2.0,-999.0,73,0.15,,,0.28,Wunderground v.1.15,2013-03-21 18:53:00,
2013-03-21 12:58:00,43.6,36.5,29.69,WNW,293,2.0,-999.0,76,0.14,,,0.28,Wunderground v.1.15,2013-03-21 18:58:00,
2013-03-21 13:03:00,43.8,35.7,29.69,WNW,293,0.0,-999.0,73,0.13,,,0.28,Wunderground v.1.15,2013-03-21 19:03:00,
2013-03-21 13:08:00,44.1,36.3,29.69,WNW,293,1.0,-999.0,74,0.11,,,0.28,Wunderground v.1.15,2013-03-21 19:08:00,
2013-03-21 13:13:00,44.6,37.2,29.69,WNW,293,0.0,-999.0,75,0.11,,,0.28,Wunderground v.1.15,2013-03-21 19:13:00,
2013-03-21 13:18:00,45.4,36.9,29.68,N/A,-737280,0.0,-999.0,72,0.10,,,0.28,Wunderground v.1.15,2013-03-21 19:18:00,
2013-03-21 13:23:00,46.1,37.6,29.68,WNW,293,2.0,-999.0,72,0.10,,,0.28,Wunderground v.1.15,2013-03-21 19:23:00,
2013-03-21 13:28:00,47.3,40.1,29.68,WNW,293,1.0,-999.0,76,0.09,,,0.28,Wunderground v.1.15,2013-03-21 19:28:00,
2013-03-21 13:33:00,48.3,39.0,29.68,North,0,3.0,-999.0,70,0.07,,,0.28,Wunderground v.1.15,2013-03-21 19:33:00,
2013-03-21 13:38:00,48.8,39.8,29.68,NNE,23,2.0,-999.0,71,0.06,,,0.28,Wunderground v.1.15,2013-03-21 19:38:00,
2013-03-21 13:43:00,49.5,39.4,29.67,NNW,338,1.0,-999.0,68,0.05,,,0.28,Wunderground v.1.15,2013-03-21 19:43:00,
2013-03-21 13:48:00,49.8,38.5,29.67,NNW,338,1.0,-999.0,65,0.04,,,0.28,Wunderground v.1.15,2013-03-21 19:48:00,
2013-03-21 13:53:00,49.8,38.5,29.67,South,180,0.0,-999.0,65,0.03,,,0.28,Wunderground v.1.15,2013-03-21 19:53:00,
2013-03-21 13:58:00,49.8,37.7,29.67,South,180,0.0,-999.0,63,0.03,,,0.28,Wunderground v.1.15,2013-03-21 19:58:00,
2013-03-21 14:03:00,50.2,39.7,29.67,ESE,113,6.0,-999.0,67,0.02,,,0.28,Wunderground v.1.15,2013-03-21 20:03:00,
2013-03-21 14:08:00,49.2,38.7,29.67,East,90,4.0,-999.0,67,0.02,,,0.28,Wunderground v.1.15,2013-03-21 20:08:00,
2013-03-21 14:13:00,48.6,38.5,29.67,NE,45,3.0,-999.0,68,0.01,,,0.28,Wunderground v.1.15,2013-03-21 20:13:00,
2013-03-21 14:18:00,48.2,38.5,29.67,NE,45,2.0,-999.0,69,0.01,,,0.28,Wunderground v.1.15,2013-03-21 20:18:00,
2013-03-21 14:23:00,48.3,38.2,29.67,East,90,3.0,-999.0,68,0.00,,,0.28,Wunderground v.1.15,2013-03-21 20:23:00,
2013-03-21 14:28:00,48.5,38.0,29.67,ENE,68,1.0,-999.0,67,0.00,,,0.28,Wunderground v.1.15,2013-03-21 20:28:00,
2013-03-21 14:33:00,49.3,38.8,29.67,ENE,68,0.0,-999.0,67,0.00,,,0.28,Wunderground v.1.15,2013-03-21 20:33:00,
2013-03-21 14:38:00,50.6,39.7,29.67,SSE,158,0.0,-999.0,66,0.00,,,0.28,Wunderground v.1.15,2013-03-21 20:38:00,
2013-03-21 14:43:00,51.7,39.5,29.66,NW,315,2.0,-999.0,63,0.00,,,0.28,Wunderground v.1.15,2013-03-21 20:43:00,
2013-03-21 14:48:00,52.3,38.8,29.66,WNW,293,2.0,-999.0,60,0.00,,,0.28,Wunderground v.1.15,2013-03-21 20:48:00,
2013-03-21 14:53:00,52.7,36.5,29.66,WSW,248,0.0,-999.0,54,0.00,,,0.28,Wunderground v.1.15,2013-03-21 20:53:00,
2013-03-21 14:58:00,52.8,35.6,29.66,SW,225,1.0,-999.0,52,0.00,,,0.28,Wunderground v.1.15,2013-03-21 20:58:00,
2013-03-21 15:03:00,53.0,31.1,29.66,West,270,2.0,-999.0,43,0.00,,,0.28,Wunderground v.1.15,2013-03-21 21:03:00,
2013-03-21 15:08:00,53.8,33.5,29.66,NNW,338,6.0,-999.0,46,0.00,,,0.28,Wunderground v.1.15,2013-03-21 21:08:00,
2013-03-21 15:13:00,54.7,24.6,29.66,NW,315,6.0,-999.0,31,0.00,,,0.28,Wunderground v.1.15,2013-03-21 21:13:00,
2013-03-21 15:18:00,55.2,25.1,29.66,NW,315,5.0,-999.0,31,0.00,,,0.28,Wunderground v.1.15,2013-03-21 21:18:00,
2013-03-21 15:23:00,55.7,24.7,29.66,WNW,293,6.0,-999.0,30,0.00,,,0.28,Wunderground v.1.15,2013-03-21 21:23:00,
2013-03-21 15:28:00,55.6,19.3,29.66,West,270,9.0,-999.0,24,0.00,,,0.28,Wunderground v.1.15,2013-03-21 21:28:00,
2013-03-21 15:33:00,55.4,21.0,29.66,WNW,293,7.0,-999.0,26,0.00,,,0.28,Wunderground v.1.15,2013-03-21 21:33:00,
2013-03-21 15:38:00,55.4,22.8,29.66,WNW,293,7.0,-999.0,28,0.00,,,0.28,Wunderground v.1.15,2013-03-21 21:38:00,
2013-03-21 15:43:00,55.3,19.1,29.66,NW,315,8.0,-999.0,24,0.00,,,0.28,Wunderground v.1.15,2013-03-21 21:43:00,
2013-03-21 15:48:00,55.2,19.0,29.67,West,270,7.0,-999.0,24,0.00,,,0.28,Wunderground v.1.15,2013-03-21 21:48:00,
2013-03-21 15:53:00,55.3,19.1,29.67,West,270,8.0,-999.0,24,0.00,,,0.28,Wunderground v.1.15,2013-03-21 21:53:00,
2013-03-21 15:58:00,55.0,14.6,29.66,SW,225,8.0,-999.0,20,0.00,,,0.28,Wunderground v.1.15,2013-03-21 21:58:00,
2013-03-21 16:03:00,55.0,17.8,29.66,WSW,248,8.0,-999.0,23,0.00,,,0.28,Wunderground v.1.15,2013-03-21 22:03:00,
2013-03-21 16:08:00,55.2,17.0,29.66,West,270,8.0,-999.0,22,0.00,,,0.28,Wunderground v.1.15,2013-03-21 22:08:00,
2013-03-21 16:13:00,55.3,18.1,29.66,NNW,338,7.0,-999.0,23,0.00,,,0.28,Wunderground v.1.15,2013-03-21 22:13:00,
2013-03-21 16:18:00,55.3,17.0,29.67,West,270,6.0,-999.0,22,0.00,,,0.28,Wunderground v.1.15,2013-03-21 22:18:00,
2013-03-21 16:23:00,55.2,19.0,29.67,WNW,293,7.0,-999.0,24,0.00,,,0.28,Wunderground v.1.15,2013-03-21 22:23:00,
2013-03-21 16:28:00,55.2,17.0,29.67,WNW,293,10.0,-999.0,22,0.00,,,0.28,Wunderground v.1.15,2013-03-21 22:28:00,
2013-03-21 16:33:00,55.1,15.8,29.67,WSW,248,8.0,-999.0,21,0.00,,,0.28,Wunderground v.1.15,2013-03-21 22:33:00,
2013-03-21 16:38:00,54.6,16.5,29.67,WNW,293,9.0,-999.0,22,0.00,,,0.28,Wunderground v.1.15,2013-03-21 22:38:00,
2013-03-21 16:43:00,54.4,17.3,29.67,WNW,293,6.0,-999.0,23,0.00,,,0.28,Wunderground v.1.15,2013-03-21 22:43:00,
2013-03-21 16:48:00,53.9,13.7,29.67,North,0,7.0,-999.0,20,0.00,,,0.28,Wunderground v.1.15,2013-03-21 22:48:00,
2013-03-21 16:53:00,53.5,13.4,29.68,WNW,293,7.0,-999.0,20,0.00,,,0.28,Wunderground v.1.15,2013-03-21 22:53:00,
2013-03-21 16:58:00,53.3,13.2,29.68,NW,315,10.0,-999.0,20,0.00,,,0.28,Wunderground v.1.15,2013-03-21 22:58:00,
2013-03-21 17:03:00,53.2,15.3,29.68,NNW,338,8.0,-999.0,22,0.00,,,0.28,Wunderground v.1.15,2013-03-21 23:03:00,
2013-03-21 17:08:00,53.1,15.2,29.68,NW,315,7.0,-999.0,22,0.00,,,0.28,Wunderground v.1.15,2013-03-21 23:08:00,
2013-03-21 17:13:00,53.1,15.2,29.69,NW,315,6.0,-999.0,22,0.00,,,0.28,Wunderground v.1.15,2013-03-21 23:13:00,
2013-03-21 17:18:00,53.3,15.4,29.69,NNW,338,9.0,-999.0,22,0.00,,,0.28,Wunderground v.1.15,2013-03-21 23:18:00,
2013-03-21 17:23:00,53.0,14.0,29.69,NNW,338,8.0,-999.0,21,0.01,,,0.28,Wunderground v.1.15,2013-03-21 23:23:00,
2013-03-21 17:28:00,52.7,15.9,29.69,NNW,338,6.0,-999.0,23,0.01,,,0.28,Wunderground v.1.15,2013-03-21 23:28:00,
2013-03-21 17:33:00,52.8,14.9,29.70,NNW,338,3.0,-999.0,22,0.01,,,0.28,Wunderground v.1.15,2013-03-21 23:33:00,
2013-03-21 17:38:00,53.3,15.4,29.70,WNW,293,7.0,-999.0,22,0.01,,,0.28,Wunderground v.1.15,2013-03-21 23:38:00,
2013-03-21 17:43:00,53.3,14.3,29.70,NNW,338,6.0,-999.0,21,0.01,,,0.28,Wunderground v.1.15,2013-03-21 23:43:00,
2013-03-21 17:48:00,53.2,13.1,29.71,NNW,338,6.0,-999.0,20,0.01,,,0.28,Wunderground v.1.15,2013-03-21 23:48:00,
2013-03-21 17:53:00,53.1,14.1,29.71,NNW,338,2.0,-999.0,21,0.01,,,0.28,Wunderground v.1.15,2013-03-21 23:53:00,
2013-03-21 17:58:00,53.1,14.1,29.71,NNW,338,8.0,-999.0,21,0.01,,,0.28,Wunderground v.1.15,2013-03-21 23:58:00,
2013-03-21 18:03:00,52.9,15.0,29.71,NW,315,5.0,-999.0,22,0.01,,,0.28,Wunderground v.1.15,2013-03-22 00:03:00,
2013-03-21 18:08:00,52.8,12.8,29.71,NW,315,6.0,-999.0,20,0.01,,,0.28,Wunderground v.1.15,2013-03-22 00:08:00,
2013-03-21 18:13:00,52.6,14.8,29.72,NW,315,6.0,-999.0,22,0.01,,,0.28,Wunderground v.1.15,2013-03-22 00:13:00,
2013-03-21 18:18:00,52.2,13.4,29.72,NW,315,6.0,-999.0,21,0.01,,,0.28,Wunderground v.1.15,2013-03-22 00:18:00,
2013-03-21 18:23:00,51.6,12.9,29.72,NNW,338,5.0,-999.0,21,0.00,,,0.28,Wunderground v.1.15,2013-03-22 00:23:00,
2013-03-21 18:28:00,51.0,12.4,29.72,NNW,338,3.0,-999.0,21,0.00,,,0.28,Wunderground v.1.15,2013-03-22 00:28:00,
2013-03-21 18:33:00,50.4,11.9,29.73,WNW,293,4.0,-999.0,21,0.00,,,0.28,Wunderground v.1.15,2013-03-22 00:33:00,
2013-03-21 18:38:00,50.0,12.6,29.73,NNW,338,4.0,-999.0,22,0.00,,,0.28,Wunderground v.1.15,2013-03-22 00:38:00,
2013-03-21 18:43:00,49.7,12.3,29.73,WNW,293,7.0,-999.0,22,0.00,,,0.28,Wunderground v.1.15,2013-03-22 00:43:00,
2013-03-21 18:48:00,49.4,12.1,29.73,NW,315,3.0,-999.0,22,0.00,,,0.28,Wunderground v.1.15,2013-03-22 00:48:00,
2013-03-21 18:53:00,49.2,12.9,29.74,WNW,293,2.0,-999.0,23,0.00,,,0.28,Wunderground v.1.15,2013-03-22 00:53:00,
2013-03-21 18:58:00,48.9,13.6,29.74,West,270,2.0,-999.0,24,0.00,,,0.28,Wunderground v.1.15,2013-03-22 00:58:00,
2013-03-21 19:03:00,48.5,14.2,29.74,WNW,293,2.0,-999.0,25,0.00,,,0.28,Wunderground v.1.15,2013-03-22 01:03:00,
2013-03-21 19:08:00,48.2,14.0,29.74,WNW,293,1.0,-999.0,25,0.00,,,0.28,Wunderground v.1.15,2013-03-22 01:08:00,
2013-03-21 19:13:00,47.8,14.5,29.75,WNW,293,0.0,-999.0,26,0.00,,,0.28,Wunderground v.1.15,2013-03-22 01:13:00,
2013-03-21 19:18:00,47.5,13.4,29.75,WNW,293,2.0,-999.0,25,0.00,,,0.28,Wunderground v.1.15,2013-03-22 01:18:00,
2013-03-21 19:23:00,47.3,14.1,29.75,WNW,293,1.0,-999.0,26,0.00,,,0.28,Wunderground v.1.15,2013-03-22 01:23:00,
2013-03-21 19:28:00,47.3,12.3,29.75,WSW,248,3.0,-999.0,24,0.00,,,0.28,Wunderground v.1.15,2013-03-22 01:28:00,
2013-03-21 19:33:00,47.3,12.3,29.76,SW,225,3.0,-999.0,24,0.00,,,0.28,Wunderground v.1.15,2013-03-22 01:33:00,
2013-03-21 19:38:00,47.1,12.1,29.76,SW,225,2.0,-999.0,24,0.00,,,0.28,Wunderground v.1.15,2013-03-22 01:38:00,
2013-03-21 19:43:00,47.1,13.0,29.76,SW,225,2.0,-999.0,25,0.00,,,0.28,Wunderground v.1.15,2013-03-22 01:43:00,
2013-03-21 19:48:00,47.2,11.2,29.77,SW,225,3.0,-999.0,23,0.00,,,0.28,Wunderground v.1.15,2013-03-22 01:48:00,
2013-03-21 19:53:00,47.3,11.3,29.77,SW,225,5.0,-999.0,23,0.00,,,0.28,Wunderground v.1.15,2013-03-22 01:53:00,
2013-03-21 19:58:00,47.2,12.2,29.77,SW,225,3.0,-999.0,24,0.00,,,0.28,Wunderground v.1.15,2013-03-22 01:58:00,
2013-03-21 20:03:00,47.0,12.0,29.76,SW,225,1.0,-999.0,24,0.00,,,0.28,Wunderground v.1.15,2013-03-22 02:03:00,
2013-03-21 20:08:00,46.7,12.7,29.76,SW,225,2.0,-999.0,25,0.00,,,0.28,Wunderground v.1.15,2013-03-22 02:08:00,
2013-03-21 20:13:00,46.6,11.7,29.76,SW,225,4.0,-999.0,24,0.00,,,0.28,Wunderground v.1.15,2013-03-22 02:13:00,
2013-03-21 20:18:00,46.8,11.8,29.77,SW,225,5.0,-999.0,24,0.00,,,0.28,Wunderground v.1.15,2013-03-22 02:18:00,
2013-03-21 20:23:00,46.8,9.9,29.77,WSW,248,2.0,-999.0,22,0.00,,,0.28,Wunderground v.1.15,2013-03-22 02:23:00,
2013-03-21 20:28:00,47.0,12.0,29.77,SW,225,3.0,-999.0,24,0.00,,,0.28,Wunderground v.1.15,2013-03-22 02:28:00,
2013-03-21 20:33:00,46.9,11.0,29.77,WNW,293,2.0,-999.0,23,0.00,,,0.28,Wunderground v.1.15,2013-03-22 02:33:00,
2013-03-21 20:38:00,46.8,11.8,29.78,WSW,248,3.0,-999.0,24,0.00,,,0.28,Wunderground v.1.15,2013-03-22 02:38:00,
2013-03-21 20:43:00,46.4,12.4,29.78,WSW,248,2.0,-999.0,25,0.00,,,0.28,Wunderground v.1.15,2013-03-22 02:43:00,
2013-03-21 20:48:00,46.0,13.0,29.79,WSW,248,4.0,-999.0,26,0.00,,,0.28,Wunderground v.1.15,2013-03-22 02:48:00,
2013-03-21 20:53:00,45.9,12.9,29.79,WSW,248,1.0,-999.0,26,0.00,,,0.28,Wunderground v.1.15,2013-03-22 02:53:00,
2013-03-21 20:58:00,45.7,13.6,29.80,WSW,248,2.0,-999.0,27,0.00,,,0.28,Wunderground v.1.15,2013-03-22 02:58:00,
2013-03-21 21:03:00,45.6,12.6,29.80,WSW,248,1.0,-999.0,26,0.00,,,0.28,Wunderground v.1.15,2013-03-22 03:03:00,
2013-03-21 21:08:00,45.5,12.5,29.80,WSW,248,1.0,-999.0,26,0.00,,,0.28,Wunderground v.1.15,2013-03-22 03:08:00,
2013-03-21 21:13:00,45.3,13.2,29.80,WSW,248,1.0,-999.0,27,0.00,,,0.28,Wunderground v.1.15,2013-03-22 03:13:00,
2013-03-21 21:18:00,45.0,13.8,29.80,WSW,248,0.0,-999.0,28,0.00,,,0.28,Wunderground v.1.15,2013-03-22 03:18:00,
2013-03-21 21:23:00,44.6,14.3,29.80,WSW,248,1.0,-999.0,29,0.00,,,0.28,Wunderground v.1.15,2013-03-22 03:23:00,
2013-03-21 21:28:00,44.4,13.3,29.81,WSW,248,1.0,-999.0,28,0.00,,,0.28,Wunderground v.1.15,2013-03-22 03:28:00,
2013-03-21 21:33:00,44.4,13.3,29.81,WSW,248,3.0,-999.0,28,0.00,,,0.28,Wunderground v.1.15,2013-03-22 03:33:00,
2013-03-21 21:38:00,44.5,14.2,29.81,SW,225,1.0,-999.0,29,0.00,,,0.28,Wunderground v.1.15,2013-03-22 03:38:00,
2013-03-21 21:43:00,44.5,13.4,29.81,SW,225,1.0,-999.0,28,0.00,,,0.28,Wunderground v.1.15,2013-03-22 03:43:00,
2013-03-21 21:48:00,44.3,13.2,29.81,SW,225,0.0,-999.0,28,0.00,,,0.28,Wunderground v.1.15,2013-03-22 03:48:00,
2013-03-21 21:53:00,44.2,13.1,29.82,SW,225,2.0,-999.0,28,0.00,,,0.28,Wunderground v.1.15,2013-03-22 03:53:00,
2013-03-21 21:58:00,44.2,13.1,29.82,SW,225,2.0,-999.0,28,0.00,,,0.28,Wunderground v.1.15,2013-03-22 03:58:00,
2013-03-21 22:03:00,44.1,13.0,29.82,WNW,293,2.0,-999.0,28,0.00,,,0.28,Wunderground v.1.15,2013-03-22 04:03:00,
2013-03-21 22:08:00,43.9,13.6,29.82,WNW,293,3.0,-999.0,29,0.00,,,0.28,Wunderground v.1.15,2013-03-22 04:08:00,
2013-03-21 22:13:00,44.1,13.0,29.83,WNW,293,2.0,-999.0,28,0.00,,,0.28,Wunderground v.1.15,2013-03-22 04:13:00,
2013-03-21 22:18:00,44.2,13.1,29.83,SW,225,4.0,-999.0,28,0.00,,,0.28,Wunderground v.1.15,2013-03-22 04:18:00,
2013-03-21 22:23:00,44.3,12.4,29.83,SW,225,1.0,-999.0,27,0.00,,,0.28,Wunderground v.1.15,2013-03-22 04:23:00,
2013-03-21 22:28:00,44.2,12.3,29.83,SW,225,2.0,-999.0,27,0.00,,,0.28,Wunderground v.1.15,2013-03-22 04:28:00,
2013-03-21 22:33:00,44.0,12.1,29.83,SW,225,1.0,-999.0,27,0.00,,,0.28,Wunderground v.1.15,2013-03-22 04:33:00,
2013-03-21 22:38:00,43.7,12.7,29.84,SW,225,1.0,-999.0,28,0.00,,,0.28,Wunderground v.1.15,2013-03-22 04:38:00,
2013-03-21 22:43:00,43.5,12.5,29.84,SW,225,0.0,-999.0,28,0.00,,,0.28,Wunderground v.1.15,2013-03-22 04:43:00,
2013-03-21 22:48:00,43.2,12.2,29.84,SW,225,1.0,-999.0,28,0.00,,,0.28,Wunderground v.1.15,2013-03-22 04:48:00,
2013-03-21 22:53:00,43.1,12.9,29.84,SW,225,1.0,-999.0,29,0.00,,,0.28,Wunderground v.1.15,2013-03-22 04:53:00,
2013-03-21 22:58:00,43.0,12.1,29.84,SW,225,2.0,-999.0,28,0.00,,,0.28,Wunderground v.1.15,2013-03-22 04:58:00,
2013-03-21 23:03:00,43.0,12.9,29.84,SW,225,2.0,-999.0,29,0.00,,,0.28,Wunderground v.1.15,2013-03-22 05:03:00,
2013-03-21 23:08:00,42.9,12.0,29.84,SW,225,4.0,-999.0,28,0.00,,,0.28,Wunderground v.1.15,2013-03-22 05:08:00,
2013-03-21 23:13:00,42.9,12.0,29.84,SW,225,2.0,-999.0,28,0.00,,,0.28,Wunderground v.1.15,2013-03-22 05:13:00,
2013-03-21 23:18:00,43.0,12.1,29.85,SW,225,2.0,-999.0,28,0.00,,,0.28,Wunderground v.1.15,2013-03-22 05:18:00,
2013-03-21 23:23:00,42.9,11.2,29.84,SW,225,1.0,-999.0,27,0.00,,,0.28,Wunderground v.1.15,2013-03-22 05:23:00,
2013-03-21 23:28:00,42.9,10.3,29.84,SW,225,2.0,-999.0,26,0.00,,,0.28,Wunderground v.1.15,2013-03-22 05:28:00,
2013-03-21 23:33:00,43.0,9.5,29.84,SW,225,1.0,-999.0,25,0.00,,,0.28,Wunderground v.1.15,2013-03-22 05:33:00,
2013-03-21 23:38:00,43.2,9.7,29.84,West,270,2.0,-999.0,25,0.00,,,0.28,Wunderground v.1.15,2013-03-22 05:38:00,
2013-03-21 23:43:00,42.8,16.3,29.84,NNW,338,0.0,-999.0,34,0.00,,,0.28,Wunderground v.1.15,2013-03-22 05:43:00,
2013-03-21 23:48:00,41.3,16.3,29.84,NNW,338,0.0,-999.0,36,0.00,,,0.28,Wunderground v.1.15,2013-03-22 05:48:00,
2013-03-21 23:53:00,40.0,17.0,29.84,NNW,338,0.0,-999.0,39,0.00,,,0.28,Wunderground v.1.15,2013-03-22 05:53:00,
2013-03-21 23:58:00,38.7,16.4,29.84,NNW,338,0.0,-999.0,40,0.00,,,0.28,Wunderground v.1.15,2013-03-22 05:58:00,